Time;durP1;ratioP1;P1;durP2;ratioP2;P2;SDS_P1;SDS_P2;PMS_P1;PMS_P2;Temp;Humidity;BMP_temperature;BMP_pressure;BME280_temperature;BME280_humidity;BME280_pressure;Samples;Min_cycle;Max_cycle;Signal;HPM_P1;HPM_P2
2023/06/03 00:01:07;;;;;;;7.00;3.30;;;22.30;44.20;23.00;101196.00;;;;5011446;28;20246;-48
2023/06/03 00:03:32;;;;;;;3.83;2.90;;;22.30;44.20;23.00;101202.00;;;;5007375;28;20187;-49
2023/06/03 00:05:59;;;;;;;6.00;3.10;;;22.30;44.20;23.00;101198.00;;;;5011672;28;20172;-49
2023/06/03 00:08:25;;;;;;;4.23;2.90;;;22.30;44.30;23.00;101199.00;;;;5011194;28;20179;-48
2023/06/03 00:10:51;;;;;;;3.60;2.87;;;22.30;44.20;23.00;101198.00;;;;5009985;28;20594;-49
2023/06/03 00:13:17;;;;;;;4.13;3.07;;;22.30;44.20;23.00;101203.00;;;;5011069;28;20294;-49
2023/06/03 00:15:42;;;;;;;4.67;2.90;;;22.20;44.20;22.90;101202.00;;;;5011034;28;20172;-50
2023/06/03 00:18:08;;;;;;;3.73;3.10;;;22.20;44.20;22.90;101201.00;;;;5011174;28;20233;-49
2023/06/03 00:20:36;;;;;;;3.33;2.67;;;22.20;44.20;22.90;101199.00;;;;5011490;28;20230;-48
2023/06/03 00:23:03;;;;;;;3.93;2.80;;;22.30;44.30;22.90;101202.00;;;;5011614;28;20179;-48
2023/06/03 00:25:34;;;;;;;3.10;2.80;;;22.20;44.20;22.90;101204.00;;;;5010874;28;20207;-48
2023/06/03 00:28:00;;;;;;;4.43;3.00;;;22.20;44.20;22.90;101205.00;;;;5011373;28;20187;-48
2023/06/03 00:30:26;;;;;;;3.70;2.80;;;22.20;44.10;22.90;101212.00;;;;5010854;28;20225;-48
2023/06/03 00:32:52;;;;;;;5.07;3.00;;;22.20;44.20;22.80;101208.00;;;;5011059;28;20541;-49
2023/06/03 00:35:17;;;;;;;5.20;3.20;;;22.20;44.10;22.80;101200.00;;;;5010983;28;20472;-48
2023/06/03 00:37:43;;;;;;;4.03;2.73;;;22.20;44.00;22.80;101196.00;;;;5011223;28;20230;-48
2023/06/03 00:40:10;;;;;;;3.30;2.80;;;22.20;44.10;22.70;101192.00;;;;5011221;28;20192;-49
2023/06/03 00:42:36;;;;;;;4.93;3.00;;;22.10;44.10;22.70;101196.00;;;;5010434;28;20253;-48
2023/06/03 00:45:02;;;;;;;5.20;3.00;;;22.10;44.10;22.70;101194.00;;;;5010496;28;20203;-48
2023/06/03 00:47:28;;;;;;;3.33;2.90;;;22.10;44.20;22.70;101190.00;;;;5010703;28;20187;-48
2023/06/03 00:49:53;;;;;;;4.67;3.00;;;22.10;44.10;22.60;101189.00;;;;5009349;28;20208;-49
2023/06/03 00:52:19;;;;;;;4.60;3.20;;;22.10;44.20;22.60;101184.00;;;;4993104;28;20724;-49
2023/06/03 00:54:47;;;;;;;4.07;2.80;;;22.00;44.20;22.60;101183.00;;;;4977152;28;20178;-48
2023/06/03 00:57:13;;;;;;;4.13;2.90;;;22.00;45.00;22.60;101190.00;;;;5009083;28;20175;-49
2023/06/03 00:59:38;;;;;;;4.70;3.00;;;22.00;44.40;22.50;101178.00;;;;5008968;28;20195;-49
2023/06/03 01:02:04;;;;;;;4.00;3.03;;;22.00;44.40;22.50;101174.00;;;;5010511;28;20194;-48
2023/06/03 01:04:30;;;;;;;3.43;2.90;;;22.00;44.40;22.50;101164.00;;;;5010517;28;20202;-48
2023/06/03 01:07:18;;;;;;;4.97;3.10;;;21.90;44.30;22.50;101180.00;;;;5010496;28;20229;-49
2023/06/03 01:10:13;;;;;;;4.30;2.93;;;21.90;44.40;22.50;101187.00;;;;5009061;28;20285;-47
2023/06/03 01:13:19;;;;;;;4.90;3.10;;;21.90;44.40;22.40;101179.00;;;;5010317;28;20634;-49
2023/06/03 01:15:45;;;;;;;4.97;2.87;;;21.90;44.40;22.40;101162.00;;;;5008689;28;20502;-48
2023/06/03 01:18:11;;;;;;;4.60;2.90;;;21.90;44.40;22.40;101173.00;;;;5010077;28;20183;-48
2023/06/03 01:20:37;;;;;;;4.17;2.90;;;21.90;44.50;22.30;101168.00;;;;4976855;28;20673;-47
2023/06/03 01:23:23;;;;;;;4.07;3.20;;;21.80;44.40;22.30;101168.00;;;;5009111;28;20179;-50
2023/06/03 01:25:52;;;;;;;4.27;2.90;;;21.80;44.50;22.30;101178.00;;;;5010286;28;20182;-48
2023/06/03 01:28:20;;;;;;;3.60;3.00;;;21.70;44.50;22.20;101170.00;;;;5009131;28;20254;-49
2023/06/03 01:30:46;;;;;;;5.53;3.10;;;21.70;44.60;22.20;101168.00;;;;5010676;28;20206;-48
2023/06/03 01:33:12;;;;;;;5.20;3.27;;;21.80;44.60;22.20;101163.00;;;;5010167;28;20172;-46
2023/06/03 01:35:39;;;;;;;3.90;2.80;;;21.80;45.10;22.20;101168.00;;;;5008860;28;20183;-50
2023/06/03 01:38:04;;;;;;;4.17;2.90;;;21.70;44.60;22.20;101164.00;;;;4992629;28;20168;-49
2023/06/03 01:40:30;;;;;;;4.23;2.97;;;21.70;44.50;22.20;101174.00;;;;5009740;28;20199;-46
2023/06/03 01:42:56;;;;;;;5.73;3.30;;;21.70;44.50;22.20;101176.00;;;;5008659;28;20190;-48
2023/06/03 01:45:22;;;;;;;4.73;2.93;;;21.70;44.50;22.20;101167.00;;;;5009822;28;20175;-48
2023/06/03 01:47:47;;;;;;;4.53;2.93;;;21.70;44.50;22.10;101161.00;;;;5015712;28;20241;-50
2023/06/03 01:50:16;;;;;;;4.37;2.80;;;21.70;44.50;22.10;101164.00;;;;4996677;28;20215;-50
2023/06/03 01:52:43;;;;;;;4.13;3.03;;;21.70;44.50;22.10;101174.00;;;;5008117;28;20195;-49
2023/06/03 01:55:09;;;;;;;4.03;2.97;;;21.70;45.10;22.10;101171.00;;;;5008903;28;20267;-50
2023/06/03 01:57:35;;;;;;;4.57;3.30;;;21.70;44.50;22.10;101172.00;;;;5009461;28;20669;-49
2023/06/03 02:00:06;;;;;;;4.27;3.20;;;21.70;44.50;22.10;101172.00;;;;5009882;28;20218;-49
2023/06/03 02:02:32;;;;;;;5.17;3.47;;;21.70;44.50;22.10;101168.00;;;;5007269;28;20218;-49
2023/06/03 02:04:57;;;;;;;3.53;3.17;;;21.60;44.50;22.00;101170.00;;;;5012957;28;20195;-48
2023/06/03 02:07:26;;;;;;;4.27;3.23;;;21.60;44.50;22.00;101179.00;;;;5010534;28;20175;-48
2023/06/03 02:09:53;;;;;;;4.90;3.20;;;21.60;44.40;22.00;101170.00;;;;5009420;28;20222;-48
2023/06/03 02:12:21;;;;;;;3.47;3.00;;;21.60;44.50;22.00;101168.00;;;;5009355;28;20559;-47
2023/06/03 02:14:47;;;;;;;3.17;2.87;;;21.50;44.40;21.90;101174.00;;;;5008934;28;20654;-48
2023/06/03 02:17:15;;;;;;;3.60;3.13;;;21.60;44.50;21.90;101165.00;;;;5009153;28;20214;-48
2023/06/03 02:19:41;;;;;;;3.97;3.00;;;21.50;44.40;21.90;101168.00;;;;5009115;28;20203;-49
2023/06/03 02:22:06;;;;;;;4.50;3.20;;;21.50;44.40;21.90;101164.00;;;;5007682;28;20241;-47
2023/06/03 02:24:32;;;;;;;4.90;3.10;;;21.50;44.30;21.90;101176.00;;;;5008678;28;20964;-48
2023/06/03 02:27:01;;;;;;;4.17;3.20;;;21.40;44.30;21.80;101170.00;;;;5009165;28;20187;-49
2023/06/03 02:29:27;;;;;;;5.80;3.30;;;21.40;44.40;21.80;101177.00;;;;5009486;28;20295;-49
2023/06/03 02:31:54;;;;;;;5.03;3.10;;;21.40;44.20;21.80;101177.00;;;;5009785;28;20305;-48
2023/06/03 02:34:20;;;;;;;4.07;3.10;;;21.40;44.20;21.80;101176.00;;;;5008987;28;20673;-49
2023/06/03 02:36:46;;;;;;;4.03;3.20;;;21.30;44.20;21.70;101176.00;;;;5009180;28;20186;-49
2023/06/03 02:39:12;;;;;;;4.13;3.20;;;21.30;44.00;21.70;101168.00;;;;5008780;28;20171;-48
2023/06/03 02:41:38;;;;;;;3.80;2.90;;;21.30;43.70;21.70;101168.00;;;;5008970;28;20180;-48
2023/06/03 02:44:04;;;;;;;4.13;2.87;;;21.30;43.70;21.70;101169.00;;;;5008501;28;20179;-48
2023/06/03 02:46:31;;;;;;;3.67;3.07;;;21.20;43.40;21.60;101175.00;;;;5008444;28;20185;-48
2023/06/03 02:48:57;;;;;;;6.67;3.23;;;21.20;43.50;21.60;101165.00;;;;5008145;28;20245;-48
2023/06/03 02:51:23;;;;;;;3.37;2.70;;;21.20;43.30;21.60;101174.00;;;;5008170;28;20680;-47
2023/06/03 02:53:49;;;;;;;3.13;2.83;;;21.20;43.20;21.60;101167.00;;;;5008714;28;20248;-48
2023/06/03 02:56:15;;;;;;;3.13;2.83;;;21.20;42.90;21.50;101173.00;;;;5008426;28;20199;-48
2023/06/03 02:58:41;;;;;;;3.10;2.77;;;21.10;42.60;21.50;101166.00;;;;5001979;28;20578;-48
2023/06/03 03:01:07;;;;;;;3.47;2.80;;;21.10;42.60;21.50;101168.00;;;;5004381;28;20277;-49
2023/06/03 03:03:36;;;;;;;4.23;2.90;;;21.00;42.30;21.40;101178.00;;;;5007705;28;20206;-48
2023/06/03 03:06:06;;;;;;;3.33;2.90;;;21.00;42.40;21.40;101174.00;;;;5007255;28;20172;-49
2023/06/03 03:08:34;;;;;;;4.87;2.90;;;21.00;42.20;21.40;101182.00;;;;5008089;28;20179;-49
2023/06/03 03:11:00;;;;;;;3.73;2.80;;;21.00;42.10;21.40;101181.00;;;;5007564;28;20217;-48
2023/06/03 03:13:26;;;;;;;4.53;2.70;;;21.00;41.90;21.40;101186.00;;;;5007753;28;20275;-50
2023/06/03 03:15:52;;;;;;;3.23;2.80;;;21.00;41.70;21.40;101192.00;;;;5006588;28;20164;-48
2023/06/03 03:18:17;;;;;;;2.77;2.57;;;21.00;41.60;21.30;101189.00;;;;5007614;28;20653;-47
2023/06/03 03:20:43;;;;;;;3.33;3.03;;;20.90;41.20;21.30;101189.00;;;;5007204;28;20297;-47
2023/06/03 03:23:14;;;;;;;3.93;2.53;;;20.90;41.20;21.30;101192.00;;;;5006490;28;20243;-48
2023/06/03 03:25:40;;;;;;;3.27;2.50;;;20.90;40.90;21.30;101189.00;;;;5005989;28;20206;-48
2023/06/03 03:28:06;;;;;;;3.37;2.43;;;20.90;40.90;21.20;101192.00;;;;5007373;28;20246;-48
2023/06/03 03:30:32;;;;;;;2.90;2.53;;;20.80;40.30;21.20;101186.00;;;;4999379;28;20229;-48
2023/06/03 03:32:59;;;;;;;3.80;2.60;;;20.80;40.40;21.20;101165.00;;;;5007995;28;20182;-47
2023/06/03 03:35:25;;;;;;;2.57;2.33;;;20.80;40.00;21.10;101183.00;;;;4973871;28;20207;-47
2023/06/03 03:38:02;;;;;;;3.30;2.53;;;20.80;40.00;21.10;101179.00;;;;5006276;28;20199;-49
2023/06/03 03:40:28;;;;;;;4.57;3.00;;;20.70;40.10;21.10;101179.00;;;;5007234;28;20271;-48
2023/06/03 03:42:54;;;;;;;6.33;3.90;;;20.70;40.00;21.10;101174.00;;;;5006612;28;20689;-48
2023/06/03 03:45:22;;;;;;;5.13;3.13;;;20.70;40.00;21.10;101184.00;;;;5008859;28;20190;-49
2023/06/03 03:47:49;;;;;;;5.07;2.97;;;20.70;39.70;21.10;101196.00;;;;5013458;28;20366;-48
2023/06/03 03:50:40;;;;;;;3.43;2.90;;;20.70;39.60;21.10;101196.00;;;;5006954;28;20705;-47
2023/06/03 03:53:08;;;;;;;3.30;2.60;;;20.70;39.40;21.00;101195.00;;;;5007699;28;20170;-47
2023/06/03 03:55:42;;;;;;;6.37;2.30;;;20.70;39.50;20.90;101202.00;;;;5007222;28;20178;-49
2023/06/03 03:58:36;;;;;;;4.13;2.40;;;20.60;39.10;21.00;101207.00;;;;5007755;28;20177;-49
2023/06/03 04:01:18;;;;;;;4.13;2.10;;;20.60;39.50;21.00;101207.00;;;;5013616;28;20654;-49
2023/06/03 04:03:46;;;;;;;3.07;2.50;;;20.60;40.00;21.00;101210.00;;;;5000269;28;20177;-50
2023/06/03 04:06:16;;;;;;;4.53;2.33;;;20.60;40.10;20.90;101204.00;;;;5006733;28;20172;-49
2023/06/03 04:08:46;;;;;;;2.83;2.30;;;20.70;40.40;21.00;101205.00;;;;5006479;28;20178;-49
2023/06/03 04:11:43;;;;;;;3.70;2.40;;;20.70;40.50;21.00;101204.00;;;;5006919;28;20227;-49
2023/06/03 04:14:14;;;;;;;2.77;2.30;;;20.70;40.70;21.00;101208.00;;;;5005778;28;20270;-49
2023/06/03 04:16:58;;;;;;;3.27;2.37;;;20.70;40.70;21.00;101193.00;;;;5007559;28;20228;-49
2023/06/03 04:19:32;;;;;;;5.73;2.60;;;20.70;40.80;21.00;101197.00;;;;5010643;28;20195;-49
2023/06/03 04:21:59;;;;;;;2.90;2.20;;;20.70;40.90;21.00;101202.00;;;;5011257;28;20179;-49
2023/06/03 04:24:25;;;;;;;3.73;2.20;;;20.70;41.00;20.90;101202.00;;;;5010846;28;20188;-48
2023/06/03 04:26:52;;;;;;;3.30;2.40;;;20.60;41.20;21.00;101214.00;;;;5003994;28;20171;-48
2023/06/03 04:29:18;;;;;;;5.37;2.40;;;20.60;41.30;20.90;101208.00;;;;5009228;28;20211;-48
2023/06/03 04:31:44;;;;;;;3.63;2.23;;;20.60;41.30;21.00;101216.00;;;;5013010;28;20188;-48
2023/06/03 04:34:10;;;;;;;3.83;2.30;;;20.60;41.30;20.90;101210.00;;;;5012372;28;20285;-47
2023/06/03 04:36:36;;;;;;;3.30;2.23;;;20.60;41.30;20.90;101209.00;;;;5011171;28;20182;-48
2023/06/03 04:39:05;;;;;;;2.30;2.10;;;20.60;41.60;20.90;101206.00;;;;5011072;28;20736;-48
2023/06/03 04:41:33;;;;;;;5.47;2.40;;;20.60;41.60;20.90;101200.00;;;;5010247;28;20222;-48
2023/06/03 04:44:02;;;;;;;4.20;2.10;;;20.60;42.30;20.90;101190.00;;;;5011119;28;20195;-48
2023/06/03 04:46:31;;;;;;;3.30;2.10;;;20.60;41.80;20.90;101200.00;;;;5015576;28;20170;-48
2023/06/03 04:48:59;;;;;;;4.50;2.13;;;20.60;41.80;20.90;101204.00;;;;5010786;28;20236;-48
2023/06/03 04:51:28;;;;;;;3.47;2.00;;;20.50;41.70;20.90;101203.00;;;;5010148;28;20183;-50
2023/06/03 04:53:56;;;;;;;2.73;1.90;;;20.50;41.90;20.90;101193.00;;;;5010780;28;20184;-48
2023/06/03 04:56:24;;;;;;;2.23;2.03;;;20.50;42.00;20.90;101199.00;;;;5010573;28;20356;-49
2023/06/03 04:58:54;;;;;;;3.13;1.87;;;20.50;42.20;20.80;101209.00;;;;5010734;28;20716;-49
2023/06/03 05:01:24;;;;;;;3.87;2.13;;;20.50;42.20;20.80;101205.00;;;;5010771;28;20195;-49
2023/06/03 05:03:51;;;;;;;5.50;2.30;;;20.50;42.50;20.80;101206.00;;;;5011053;28;20226;-49
2023/06/03 05:06:17;;;;;;;5.70;2.10;;;20.50;42.50;20.80;101202.00;;;;5010398;28;20187;-49
2023/06/03 05:08:43;;;;;;;3.37;2.20;;;20.40;42.40;20.80;101198.00;;;;5011006;28;20174;-49
2023/06/03 05:11:09;;;;;;;3.30;2.00;;;20.40;43.10;20.80;101199.00;;;;5009950;28;20807;-50
2023/06/03 05:13:35;;;;;;;2.87;1.90;;;20.40;42.50;20.80;101197.00;;;;5009199;28;20591;-49
2023/06/03 05:16:01;;;;;;;2.50;2.00;;;20.40;42.50;20.80;101194.00;;;;5006419;28;20176;-48
2023/06/03 05:18:26;;;;;;;4.43;2.10;;;20.40;42.50;20.80;101201.00;;;;5010911;28;20172;-48
2023/06/03 05:20:52;;;;;;;2.63;2.10;;;20.40;43.20;20.70;101200.00;;;;5010795;28;20812;-48
2023/06/03 05:23:18;;;;;;;2.33;2.03;;;20.30;42.60;20.70;101190.00;;;;5014459;28;20651;-49
2023/06/03 05:25:44;;;;;;;3.30;1.97;;;20.40;42.60;20.70;101193.00;;;;5010675;28;20187;-49
2023/06/03 05:28:11;;;;;;;2.57;2.10;;;20.30;42.60;20.70;101200.00;;;;5009847;28;20176;-50
2023/06/03 05:30:36;;;;;;;2.30;2.10;;;20.30;42.80;20.70;101197.00;;;;5009839;28;20200;-49
2023/06/03 05:33:02;;;;;;;2.07;1.87;;;20.30;42.80;20.70;101190.00;;;;5010788;28;20178;-48
2023/06/03 05:35:28;;;;;;;2.70;2.00;;;20.30;42.80;20.70;101196.00;;;;5011993;28;20184;-48
2023/06/03 05:37:54;;;;;;;2.60;1.93;;;20.30;42.90;20.70;101194.00;;;;5010340;28;20414;-48
2023/06/03 05:40:19;;;;;;;2.07;1.90;;;20.30;43.00;20.70;101192.00;;;;5009826;28;20859;-48
2023/06/03 05:42:48;;;;;;;1.77;1.67;;;20.20;43.00;20.70;101195.00;;;;5012897;28;20210;-51
2023/06/03 05:45:14;;;;;;;2.00;1.80;;;20.20;43.10;20.70;101196.00;;;;5015398;28;20226;-48
2023/06/03 05:47:40;;;;;;;2.10;1.93;;;20.20;43.20;20.70;101194.00;;;;5010927;28;20188;-49
2023/06/03 05:50:06;;;;;;;1.93;1.83;;;20.20;43.20;20.70;101199.00;;;;5010378;28;20759;-48
2023/06/03 05:52:32;;;;;;;2.10;1.90;;;20.10;43.30;20.70;101201.00;;;;5009582;28;20206;-48
2023/06/03 05:54:58;;;;;;;2.00;1.80;;;20.10;43.30;20.70;101200.00;;;;5010000;28;20197;-49
2023/06/03 05:57:24;;;;;;;2.10;1.80;;;20.10;43.40;20.70;101198.00;;;;5010699;28;20226;-49
2023/06/03 05:59:51;;;;;;;1.70;1.60;;;20.10;43.40;20.70;101194.00;;;;4994566;28;20196;-49
2023/06/03 06:02:20;;;;;;;2.97;2.00;;;20.10;43.50;20.70;101192.00;;;;5017930;28;20188;-49
2023/06/03 06:04:46;;;;;;;2.20;2.00;;;20.10;43.60;20.70;101191.00;;;;5009855;28;20549;-50
2023/06/03 06:07:11;;;;;;;1.80;1.70;;;20.10;43.70;20.80;101187.00;;;;5009078;28;20164;-48
2023/06/03 06:09:37;;;;;;;2.37;1.77;;;20.10;43.90;20.80;101184.00;;;;5008875;28;20239;-48
2023/06/03 06:12:03;;;;;;;1.80;1.70;;;20.10;43.90;20.80;101185.00;;;;5009205;28;20175;-49
2023/06/03 06:14:29;;;;;;;1.80;1.70;;;20.10;43.90;20.80;101184.00;;;;5007437;28;20303;-47
2023/06/03 06:16:55;;;;;;;4.60;2.00;;;20.10;43.90;20.80;101186.00;;;;5008915;28;20172;-48
2023/06/03 06:19:23;;;;;;;1.93;1.83;;;20.10;43.90;20.80;101184.00;;;;5009334;28;20253;-48
2023/06/03 06:21:49;;;;;;;2.00;1.80;;;20.10;43.90;20.80;101185.00;;;;5010432;28;20259;-49
2023/06/03 06:24:15;;;;;;;2.00;1.80;;;20.10;43.80;20.80;101192.00;;;;5009753;28;20270;-49
2023/06/03 06:26:41;;;;;;;3.03;1.90;;;20.10;43.80;20.80;101181.00;;;;5009832;28;20180;-48
2023/06/03 06:29:07;;;;;;;1.80;1.70;;;20.10;43.90;20.80;101189.00;;;;5008695;28;20601;-49
2023/06/03 06:31:32;;;;;;;1.83;1.70;;;20.10;43.90;20.80;101197.00;;;;5009997;28;20176;-49
2023/06/03 06:34:02;;;;;;;1.90;1.80;;;20.10;43.90;20.80;101190.00;;;;5009859;28;20212;-49
2023/06/03 06:36:49;;;;;;;1.83;1.70;;;20.20;43.90;20.80;101195.00;;;;5009386;28;20608;-48
2023/06/03 06:39:33;;;;;;;2.30;1.87;;;20.20;43.90;20.80;101197.00;;;;5008012;28;20654;-48
2023/06/03 06:42:26;;;;;;;1.87;1.70;;;20.20;43.90;20.80;101196.00;;;;5009333;28;20171;-50
2023/06/03 06:44:52;;;;;;;2.57;1.77;;;20.20;43.90;20.80;101192.00;;;;5009615;28;20167;-49
2023/06/03 06:47:25;;;;;;;2.20;1.87;;;20.20;44.00;20.80;101200.00;;;;5009452;28;20309;-49
2023/06/03 06:49:52;;;;;;;2.10;1.90;;;20.20;44.00;20.80;101201.00;;;;5009133;28;20223;-49
2023/06/03 06:52:22;;;;;;;2.40;1.83;;;20.20;44.00;20.80;101203.00;;;;5009244;28;20170;-49
2023/06/03 06:54:48;;;;;;;2.53;1.90;;;20.20;43.90;20.80;101180.00;;;;5009183;28;20202;-49
2023/06/03 06:57:22;;;;;;;1.97;1.70;;;20.20;43.80;20.80;101207.00;;;;5008949;28;20218;-49
2023/06/03 06:59:54;;;;;;;1.83;1.73;;;20.20;43.80;20.90;101209.00;;;;5009119;28;20598;-49
2023/06/03 07:02:21;;;;;;;2.00;1.80;;;20.20;43.70;20.90;101201.00;;;;5009206;28;20826;-49
2023/06/03 07:04:50;;;;;;;2.50;1.87;;;20.30;43.80;20.90;101210.00;;;;5009010;28;20656;-49
2023/06/03 07:07:16;;;;;;;2.40;1.80;;;20.30;43.80;20.90;101194.00;;;;5009184;28;20632;-49
2023/06/03 07:09:41;;;;;;;2.20;2.00;;;20.30;43.80;20.90;101205.00;;;;5008835;28;20217;-48
2023/06/03 07:12:08;;;;;;;3.53;2.13;;;20.30;43.70;20.90;101195.00;;;;5009190;28;20168;-49
2023/06/03 07:14:34;;;;;;;2.40;1.90;;;20.30;43.80;20.90;101197.00;;;;5000864;28;20456;-49
2023/06/03 07:17:00;;;;;;;3.10;1.87;;;20.40;44.00;20.90;101206.00;;;;5009185;28;20644;-49
2023/06/03 07:19:35;;;;;;;2.60;1.73;;;20.40;44.00;20.90;101205.00;;;;5008630;28;20577;-49
2023/06/03 07:22:02;;;;;;;2.67;1.90;;;20.40;43.90;20.90;101198.00;;;;5009372;28;20202;-49
2023/06/03 07:24:28;;;;;;;1.87;1.77;;;20.40;44.10;20.90;101195.00;;;;4991476;28;20177;-49
2023/06/03 07:26:54;;;;;;;2.37;2.07;;;20.40;44.10;20.90;101203.00;;;;5009021;28;20187;-49
2023/06/03 07:29:20;;;;;;;2.23;2.00;;;20.40;44.10;20.90;101194.00;;;;5008461;28;20206;-49
2023/06/03 07:31:47;;;;;;;2.70;1.90;;;20.40;44.10;21.00;101204.00;;;;5009162;28;20314;-49
2023/06/03 07:34:15;;;;;;;2.30;1.90;;;20.40;44.20;21.00;101202.00;;;;5009301;28;20789;-49
2023/06/03 07:36:41;;;;;;;2.57;1.93;;;20.40;44.30;21.00;101192.00;;;;5007812;28;20182;-49
2023/06/03 07:39:08;;;;;;;3.53;1.83;;;20.40;44.40;21.00;101189.00;;;;5008988;28;20175;-49
2023/06/03 07:41:43;;;;;;;2.30;1.80;;;20.40;45.10;21.00;101194.00;;;;5001359;28;20169;-49
2023/06/03 07:44:13;;;;;;;2.33;1.83;;;20.40;44.50;21.00;101195.00;;;;5017112;28;20175;-49
2023/06/03 07:46:43;;;;;;;2.70;1.83;;;20.40;44.60;21.00;101201.00;;;;5009410;28;20171;-50
2023/06/03 07:49:14;;;;;;;1.87;1.77;;;20.40;44.40;21.00;101192.00;;;;5006911;28;20183;-49
2023/06/03 07:51:48;;;;;;;2.10;1.90;;;20.40;44.40;21.00;101197.00;;;;5008871;28;20176;-49
2023/06/03 07:54:14;;;;;;;2.50;1.77;;;20.40;44.50;21.00;101192.00;;;;5012147;28;20720;-49
2023/06/03 07:56:40;;;;;;;2.47;1.90;;;20.40;44.60;21.00;101195.00;;;;5013551;28;20195;-49
2023/06/03 07:59:08;;;;;;;2.10;1.90;;;20.40;44.70;21.00;101185.00;;;;5018531;28;20188;-49
2023/06/03 08:01:35;;;;;;;2.00;1.80;;;20.40;44.60;21.00;101198.00;;;;4979539;28;20171;-50
2023/06/03 08:04:28;;;;;;;1.70;1.60;;;20.40;44.60;21.00;101196.00;;;;5012403;28;20194;-49
2023/06/03 08:06:55;;;;;;;1.87;1.77;;;20.40;44.60;21.00;101195.00;;;;5003423;28;20538;-49
2023/06/03 08:09:30;;;;;;;2.03;1.83;;;20.40;44.70;21.00;101191.00;;;;5012512;28;20207;-49
2023/06/03 08:11:56;;;;;;;1.80;1.70;;;20.40;44.80;21.00;101180.00;;;;5012461;28;20207;-49
2023/06/03 08:14:21;;;;;;;1.80;1.70;;;20.40;44.80;21.00;101197.00;;;;5011519;28;20182;-50
2023/06/03 08:16:47;;;;;;;2.70;1.90;;;20.40;44.80;21.10;101188.00;;;;4995631;28;20575;-49
2023/06/03 08:19:13;;;;;;;1.80;1.70;;;20.40;44.90;21.10;101196.00;;;;5009313;28;20177;-48
2023/06/03 08:21:39;;;;;;;2.37;1.87;;;20.40;45.10;21.10;101193.00;;;;5010895;28;20247;-49
2023/06/03 08:24:05;;;;;;;1.87;1.77;;;20.40;45.10;21.10;101188.00;;;;4993252;28;20186;-48
2023/06/03 08:26:31;;;;;;;3.40;1.77;;;20.40;45.10;21.10;101186.00;;;;5018998;28;20535;-48
2023/06/03 08:28:58;;;;;;;2.23;1.70;;;20.40;45.20;21.10;101190.00;;;;5012336;28;20625;-49
2023/06/03 08:31:24;;;;;;;2.03;1.83;;;20.40;45.20;21.10;101185.00;;;;5011745;28;20204;-49
2023/06/03 08:33:50;;;;;;;3.90;1.83;;;20.40;45.20;21.10;101187.00;;;;5011482;28;20232;-49
2023/06/03 08:36:17;;;;;;;2.37;1.97;;;20.40;45.30;21.20;101189.00;;;;5010994;28;20655;-48
2023/06/03 08:38:42;;;;;;;2.63;1.70;;;20.40;45.30;21.20;101187.00;;;;5000586;28;20184;-48
2023/06/03 08:41:08;;;;;;;2.97;1.87;;;20.40;45.30;21.20;101180.00;;;;5009858;28;20209;-49
2023/06/03 08:43:42;;;;;;;2.30;2.10;;;20.40;45.40;21.20;101185.00;;;;5010646;28;20183;-49
2023/06/03 08:46:21;;;;;;;1.90;1.80;;;20.50;45.50;21.20;101182.00;;;;5010342;28;20746;-49
2023/06/03 08:49:23;;;;;;;2.10;1.90;;;20.50;45.50;21.20;101180.00;;;;5011394;28;20654;-49
2023/06/03 08:51:52;;;;;;;4.40;1.70;;;20.40;45.30;21.20;101173.00;;;;4994243;28;20181;-49
2023/06/03 08:54:17;;;;;;;2.10;1.90;;;20.40;45.40;21.20;101182.00;;;;4978351;28;20175;-49
2023/06/03 08:56:56;;;;;;;1.90;1.53;;;20.50;45.50;21.20;101174.00;;;;4977656;28;20195;-49
2023/06/03 08:59:23;;;;;;;2.47;1.70;;;20.50;45.60;21.20;101183.00;;;;5010270;28;20194;-48
2023/06/03 09:01:52;;;;;;;2.57;1.80;;;20.40;45.50;21.20;101170.00;;;;4992890;28;20176;-48
2023/06/03 09:04:17;;;;;;;1.87;1.77;;;20.40;45.50;21.20;101168.00;;;;4992603;28;20175;-49
2023/06/03 09:06:44;;;;;;;2.23;2.00;;;20.50;45.60;21.20;101177.00;;;;4993863;28;20258;-49
2023/06/03 09:09:10;;;;;;;2.10;1.90;;;20.50;45.60;21.20;101168.00;;;;4976797;28;20814;-49
2023/06/03 09:11:39;;;;;;;2.20;1.90;;;20.50;46.90;21.20;101168.00;;;;5009060;28;20173;-49
2023/06/03 09:14:04;;;;;;;6.33;1.90;;;20.50;46.50;21.20;101185.00;;;;5010556;28;20187;-46
2023/06/03 09:16:32;;;;;;;2.70;1.90;;;20.50;46.50;21.30;101183.00;;;;5010607;28;20199;-49
2023/06/03 09:18:57;;;;;;;2.13;1.80;;;20.50;46.50;21.30;101185.00;;;;5009726;28;20176;-50
2023/06/03 09:21:23;;;;;;;2.87;1.93;;;20.50;46.50;21.30;101181.00;;;;5010160;28;20205;-50
2023/06/03 09:23:51;;;;;;;7.90;2.40;;;20.50;46.60;21.30;101188.00;;;;5011608;28;20253;-49
2023/06/03 09:26:17;;;;;;;3.90;2.00;;;20.60;46.80;21.30;101185.00;;;;5010919;28;20196;-50
2023/06/03 09:28:45;;;;;;;7.60;2.30;;;20.60;46.90;21.30;101182.00;;;;5011264;28;20232;-49
2023/06/03 09:31:10;;;;;;;4.27;2.00;;;20.60;46.80;21.30;101178.00;;;;5009703;28;20633;-49
2023/06/03 09:33:37;;;;;;;6.67;2.13;;;20.60;46.90;21.30;101180.00;;;;5012023;28;20208;-49
2023/06/03 09:36:11;;;;;;;6.70;2.10;;;20.60;47.30;21.30;101190.00;;;;5010008;28;20182;-49
2023/06/03 09:38:56;;;;;;;3.43;2.03;;;20.60;47.50;21.40;101170.00;;;;5010979;28;20696;-49
2023/06/03 09:41:25;;;;;;;3.97;2.00;;;20.70;47.40;21.30;101177.00;;;;5010293;28;20214;-50
2023/06/03 09:44:01;;;;;;;2.97;1.83;;;20.70;47.50;21.40;101174.00;;;;5013674;28;20210;-50
2023/06/03 09:46:29;;;;;;;2.23;1.80;;;20.70;47.60;21.40;101176.00;;;;5011272;28;20192;-50
2023/06/03 09:49:11;;;;;;;4.37;2.20;;;20.70;47.20;21.40;101165.00;;;;5010249;28;20555;-50
2023/06/03 09:51:48;;;;;;;3.97;1.83;;;20.70;47.10;21.50;101171.00;;;;5010387;28;20236;-51
2023/06/03 09:54:15;;;;;;;3.10;2.00;;;20.70;47.20;21.50;101175.00;;;;5011327;28;20575;-50
2023/06/03 09:56:42;;;;;;;3.00;2.10;;;20.70;47.20;21.50;101171.00;;;;5013725;28;20180;-49
2023/06/03 09:59:25;;;;;;;3.07;2.07;;;20.80;47.30;21.50;101166.00;;;;5019036;28;20444;-49
2023/06/03 10:01:53;;;;;;;3.50;2.00;;;20.80;47.50;21.50;101178.00;;;;5012273;28;20202;-49
2023/06/03 10:04:44;;;;;;;2.10;1.90;;;20.80;47.40;21.50;101166.00;;;;5010618;28;20195;-49
2023/06/03 10:07:12;;;;;;;3.50;2.00;;;20.80;48.40;21.60;101173.00;;;;5005187;28;20222;-49
2023/06/03 10:09:38;;;;;;;5.67;2.20;;;20.90;47.90;21.60;101155.00;;;;5010476;28;20255;-49
2023/06/03 10:12:05;;;;;;;2.33;1.90;;;20.90;47.90;21.60;101155.00;;;;5009367;28;20181;-49
2023/06/03 10:14:31;;;;;;;8.67;2.27;;;20.80;47.80;21.60;101164.00;;;;5010408;28;20633;-49
2023/06/03 10:17:11;;;;;;;3.60;1.93;;;20.90;47.80;21.60;101166.00;;;;5010642;28;20175;-49
2023/06/03 10:19:39;;;;;;;3.07;1.93;;;20.90;47.90;21.70;101167.00;;;;5010571;28;20214;-49
2023/06/03 10:22:06;;;;;;;4.33;2.03;;;20.90;47.80;21.70;101161.00;;;;4993591;28;20278;-49
2023/06/03 10:24:36;;;;;;;7.57;2.30;;;21.00;47.90;21.70;101162.00;;;;5011583;28;20189;-50
2023/06/03 10:27:02;;;;;;;3.17;2.00;;;21.00;47.90;21.70;101165.00;;;;4994520;28;20178;-50
2023/06/03 10:29:30;;;;;;;3.37;1.93;;;21.00;48.30;21.80;101169.00;;;;5011061;28;20221;-50
2023/06/03 10:31:56;;;;;;;2.83;2.00;;;21.00;48.20;21.80;101166.00;;;;5010957;28;20229;-49
2023/06/03 10:34:22;;;;;;;3.30;1.80;;;21.00;48.30;21.80;101109.00;;;;5009963;28;20289;-49
2023/06/03 10:36:55;;;;;;;2.20;1.90;;;21.00;48.00;21.80;101157.00;;;;5011397;28;20254;-49
2023/06/03 10:39:21;;;;;;;4.97;1.90;;;21.00;47.90;21.80;101165.00;;;;5012192;28;20203;-50
2023/06/03 10:41:47;;;;;;;2.57;2.13;;;21.10;47.80;21.80;101170.00;;;;4978355;28;20204;-50
2023/06/03 10:44:12;;;;;;;2.23;2.03;;;21.00;47.60;21.80;101165.00;;;;4977638;28;20176;-51
2023/06/03 10:46:52;;;;;;;2.27;2.00;;;21.10;47.60;21.80;101164.00;;;;5011107;28;20185;-51
2023/06/03 10:49:18;;;;;;;2.00;1.90;;;21.10;47.60;21.80;101163.00;;;;5009908;28;20192;-51
2023/06/03 10:52:43;;;;;;;3.90;2.10;;;21.10;47.60;21.90;101156.00;;;;5009206;28;20177;-51
2023/06/03 10:55:49;;;;;;;4.17;2.10;;;21.10;47.60;21.90;101171.00;;;;4987830;28;20605;-49